Terminal Aerodrome Forecast
Issued by NWS Duluth, MN

Home | Current Version | Previous Version | Text Only | Print | Product List | Glossary On
Versions: 1 2 3 4 5 6 7 8 9 10 11 12 13 14 15 16 17 18
000
FTUS43 KDLH 280726 AAB
TAFDLH
TAF AMD
KDLH 280726Z 2807/2906 28009KT P6SM BKN030 OVC040
      TEMPO 2807/2810 -FZDZ BKN015 OVC025
     FM281500 30011G18KT P6SM BKN030
     FM281900 31012G18KT P6SM BKN035
     FM290000 35008KT P6SM BKN040
     FM290200 01005KT P6SM SCT040=

USA.gov is the U.S. government's official web portal to all federal, state and local government web resources and services.